Terminal Aerodrome Forecast
Issued by NWS

Home | Current Version | Previous Version | Text Only | Print | Product List | Glossary On
Versions: 1 2 3 4 5 6 7 8 9 10 11 12
653
FTUS41 KPHI 251733
TAFPNE
TAF
KPNE 251733Z 2518/2618 21010KT P6SM BKN050
     FM260000 22005KT P6SM BKN150
     FM261600 31008KT P6SM FEW030=

USA.gov is the U.S. government's official web portal to all federal, state and local government web resources and services.